| time (UTC) | temp F | wind direction | speed MPH | gust MPH | rain 1hr in | rain 24hr in | rain mn in | humidity % | barometer mb |
| 20260903015006 | 79 | 234 | 0.0 | 0.0 | 0.00 | 0.00 | 0.00 | 85 | 1014.0 |
| 20260903014006 | 79 | 234 | 0.0 | 0.0 | 0.00 | 0.00 | 0.00 | 85 | 1013.9 |
| 20260903013005 | 79 | 234 | 0.0 | 0.0 | 0.00 | 0.00 | 0.00 | 84 | 1014.1 |
| 20260903012005 | 80 | 234 | 0.0 | 0.0 | 0.00 | 0.00 | 0.00 | 83 | 1013.8 |
| 20260903005006 | 81 | 234 | 0.0 | 0.0 | 0.00 | 0.00 | 0.00 | 80 | 1013.7 |
| 20260903004006 | 81 | 234 | 0.0 | 5.0 | 0.00 | 0.00 | 0.00 | 79 | 1013.5 |
| 20260903003005 | 82 | 234 | 0.0 | 3.0 | 0.00 | 0.00 | 0.00 | 77 | 1013.6 |
| 20260903002005 | 82 | 234 | 0.0 | 5.0 | 0.00 | 0.00 | 0.00 | 77 | 1013.5 |
| 20260903000005 | 83 | 234 | 3.0 | 5.0 | 0.00 | 0.02 | 0.00 | 75 | 1013.5 |
| 20260902234005 | 84 | 234 | 4.0 | 6.0 | 0.00 | 0.02 | 0.00 | 72 | 1013.6 |
| 20260902233005 | 85 | 234 | 3.0 | 7.0 | 0.00 | 0.03 | 0.00 | 72 | 1013.6 |
| 20260902232005 | 85 | 234 | 5.0 | 7.0 | 0.00 | 0.03 | 0.00 | 72 | 1013.5 |
| 20260902231005 | 86 | 234 | 5.0 | 7.0 | 0.00 | 0.03 | 0.00 | 71 | 1013.6 |
| 20260902230005 | 87 | 234 | 5.0 | 7.0 | 0.00 | 0.04 | 0.00 | 69 | 1013.6 |
| 20260902225005 | 88 | 234 | 6.0 | 7.0 | 0.00 | 0.04 | 0.00 | 66 | 1013.6 |
| 20260902223005 | 89 | 240 | 6.0 | 7.0 | 0.00 | 0.05 | 0.00 | 63 | 1013.8 |
| 20260902222005 | 89 | 240 | 5.0 | 7.0 | 0.00 | 0.06 | 0.00 | 65 | 1013.7 |
| 20260902221005 | 90 | 240 | 6.0 | 7.0 | 0.00 | 0.07 | 0.00 | 63 | 1013.8 |
| 20260902220005 | 90 | 240 | 7.0 | 10.0 | 0.00 | 0.07 | 0.00 | 59 | 1013.9 |
| 20260902215005 | 90 | 242 | 5.0 | 9.0 | 0.00 | 0.07 | 0.00 | 60 | 1013.9 |
| 20260902214005 | 91 | 240 | 6.0 | 10.0 | 0.00 | 0.07 | 0.00 | 59 | 1013.9 |
| 20260902213005 | 90 | 239 | 7.0 | 10.0 | 0.00 | 0.07 | 0.00 | 58 | 1013.9 |
| 20260902212005 | 91 | 238 | 8.0 | 9.0 | 0.00 | 0.07 | 0.00 | 56 | 1014.0 |
| 20260902211005 | 91 | 240 | 9.0 | 10.0 | 0.00 | 0.07 | 0.00 | 55 | 1013.9 |
| 20260902210005 | 91 | 243 | 7.0 | 10.0 | 0.00 | 0.07 | 0.00 | 54 | 1014.1 |
| 20260902205005 | 91 | 241 | 9.0 | 10.0 | 0.00 | 0.08 | 0.00 | 55 | 1014.2 |
| 20260902204005 | 92 | 231 | 9.0 | 10.0 | 0.00 | 0.09 | 0.00 | 57 | 1014.3 |
| 20260902203005 | 92 | 239 | 8.0 | 10.0 | 0.00 | 0.10 | 0.00 | 55 | 1014.4 |
| 20260902202005 | 93 | 238 | 9.0 | 10.0 | 0.00 | 0.11 | 0.00 | 55 | 1014.5 |
| 20260902200005 | 92 | 249 | 7.0 | 10.0 | 0.00 | 0.11 | 0.00 | 54 | 1014.8 |
| 20260902194005 | 92 | 234 | 9.0 | 13.0 | 0.00 | 0.11 | 0.00 | 56 | 1014.7 |
| 20260902193005 | 92 | 237 | 6.0 | 9.0 | 0.00 | 0.12 | 0.00 | 57 | 1014.9 |
| 20260902192005 | 91 | 237 | 9.0 | 12.0 | 0.00 | 0.12 | 0.00 | 56 | 1015.2 |
| 20260902191005 | 91 | 232 | 7.0 | 10.0 | 0.00 | 0.12 | 0.00 | 61 | 1015.0 |
| 20260902190005 | 91 | 234 | 8.0 | 10.0 | 0.00 | 0.12 | 0.00 | 61 | 1015.3 |
| 20260902185005 | 91 | 225 | 5.0 | 7.0 | 0.00 | 0.12 | 0.00 | 63 | 1015.3 |
| 20260902184004 | 91 | 241 | 7.0 | 15.0 | 0.00 | 0.12 | 0.00 | 60 | 1015.3 |
| 20260902183005 | 91 | 232 | 6.0 | 7.0 | 0.00 | 0.12 | 0.00 | 62 | 1015.2 |
| 20260902182005 | 91 | 242 | 5.0 | 7.0 | 0.00 | 0.12 | 0.00 | 63 | 1015.5 |
| 20260902180007 | 90 | 236 | 8.0 | 10.0 | 0.00 | 0.12 | 0.00 | 64 | 1015.9 |
| 20260902175005 | 90 | 256 | 5.0 | 7.0 | 0.00 | 0.12 | 0.00 | 62 | 1015.8 |
| 20260902172005 | 89 | 230 | 5.0 | 10.0 | 0.00 | 0.12 | 0.00 | 68 | 1016.0 |
| 20260902171005 | 89 | 230 | 6.0 | 10.0 | 0.00 | 0.12 | 0.00 | 66 | 1016.3 |
| 20260902170005 | 88 | 223 | 6.0 | 9.0 | 0.00 | 0.12 | 0.00 | 68 | 1016.3 |
| 20260902164005 | 87 | 228 | 5.0 | 7.0 | 0.00 | 0.12 | 0.00 | 72 | 1016.4 |
| 20260902163005 | 86 | 226 | 3.0 | 7.0 | 0.00 | 0.12 | 0.00 | 71 | 1016.6 |
| 20260902162005 | 87 | 228 | 5.0 | 10.0 | 0.00 | 0.12 | 0.00 | 70 | 1016.8 |
| 20260902161005 | 86 | 228 | 5.0 | 10.0 | 0.00 | 0.12 | 0.00 | 72 | 1016.8 |
| 20260902160007 | 86 | 214 | 5.0 | 10.0 | 0.00 | 0.12 | 0.00 | 71 | 1016.8 |
| 20260902155004 | 86 | 229 | 4.0 | 10.0 | 0.00 | 0.12 | 0.00 | 74 | 1016.9 |
| 20260902154005 | 85 | 232 | 6.0 | 7.0 | 0.00 | 0.12 | 0.00 | 74 | 1016.7 |
| 20260902153004 | 85 | 235 | 5.0 | 7.0 | 0.00 | 0.12 | 0.00 | 75 | 1016.6 |
| 20260902152004 | 85 | 231 | 5.0 | 10.0 | 0.00 | 0.12 | 0.00 | 77 | 1016.7 |
| 20260902150005 | 83 | 220 | 3.0 | 7.0 | 0.00 | 0.13 | 0.00 | 79 | 1016.6 |
| 20260902145005 | 83 | 227 | 5.0 | 7.0 | 0.00 | 0.13 | 0.00 | 81 | 1016.5 |
| 20260902143005 | 81 | 228 | 5.0 | 7.0 | 0.00 | 0.38 | 0.00 | 89 | 1016.2 |
| 20260902142005 | 80 | 216 | 4.0 | 7.0 | 0.00 | 0.38 | 0.00 | 92 | 1016.3 |
| 20260902140005 | 78 | 211 | 3.0 | 7.0 | 0.00 | 0.38 | 0.00 | 94 | 1016.2 |
| 20260902135004 | 77 | 253 | 4.0 | 6.0 | 0.00 | 0.38 | 0.00 | 94 | 1016.3 |
| 20260902133005 | 76 | 253 | 2.0 | 5.0 | 0.00 | 0.38 | 0.00 | 94 | 1016.3 |
| 20260902132004 | 75 | 253 | 3.0 | 7.0 | 0.00 | 0.38 | 0.00 | 94 | 1016.2 |
| 20260902131005 | 75 | 253 | 3.0 | 5.0 | 0.00 | 0.38 | 0.00 | 94 | 1016.3 |
| 20260902130005 | 75 | 256 | 0.0 | 0.0 | 0.00 | 0.38 | 0.00 | 94 | 1016.3 |
| 20260902125004 | 74 | 256 | 0.0 | 0.0 | 0.00 | 0.38 | 0.00 | 94 | 1016.3 |
| 20260902124005 | 74 | 256 | 0.0 | 0.0 | 0.00 | 0.38 | 0.00 | 93 | 1016.4 |
| 20260902123004 | 73 | 256 | 0.0 | 0.0 | 0.00 | 0.38 | 0.00 | 93 | 1016.4 |
| 20260902122004 | 73 | 256 | 0.0 | 0.0 | 0.00 | 0.38 | 0.00 | 93 | 1016.4 |
| 20260902121004 | 72 | 256 | 0.0 | 0.0 | 0.00 | 0.38 | 0.00 | 93 | 1016.3 |
| 20260902120004 | 72 | 256 | 0.0 | 0.0 | 0.00 | 0.38 | 0.00 | 93 | 1016.5 |
| 20260902115005 | 72 | 256 | 0.0 | 0.0 | 0.00 | 0.38 | 0.00 | 93 | 1016.4 |
| 20260902114004 | 71 | 256 | 0.0 | 0.0 | 0.00 | 0.38 | 0.00 | 93 | 1016.4 |
| 20260902113004 | 72 | 256 | 0.0 | 0.0 | 0.00 | 0.38 | 0.00 | 93 | 1016.3 |
| 20260902112004 | 71 | 256 | 0.0 | 0.0 | 0.00 | 0.38 | 0.00 | 93 | 1016.3 |
| 20260902111005 | 71 | 256 | 0.0 | 0.0 | 0.00 | 0.38 | 0.00 | 93 | 1016.3 |
| 20260902110006 | 71 | 256 | 0.0 | 0.0 | 0.00 | 0.38 | 0.00 | 93 | 1016.1 |
| 20260902105004 | 71 | 256 | 0.0 | 0.0 | 0.00 | 0.38 | 0.00 | 93 | 1016.1 |
| 20260902104004 | 71 | 256 | 0.0 | 0.0 | 0.00 | 0.38 | 0.00 | 93 | 1016.0 |
| 20260902103005 | 71 | 256 | 0.0 | 0.0 | 0.00 | 0.38 | 0.00 | 92 | 1016.3 |
| 20260902102004 | 71 | 256 | 0.0 | 0.0 | 0.00 | 0.38 | 0.00 | 93 | 1016.0 |
| 20260902101004 | 72 | 256 | 0.0 | 0.0 | 0.00 | 0.38 | 0.00 | 93 | 1015.9 |
| 20260902100005 | 72 | 256 | 0.0 | 0.0 | 0.00 | 0.38 | 0.00 | 92 | 1016.1 |
| 20260902093005 | 72 | 256 | 0.0 | 0.0 | 0.00 | 0.38 | 0.00 | 93 | 1015.8 |
| 20260902091004 | 72 | 256 | 0.0 | 0.0 | 0.00 | 0.38 | 0.00 | 93 | 1015.7 |
| 20260902090004 | 73 | 256 | 0.0 | 0.0 | 0.00 | 0.38 | 0.00 | 92 | 1015.9 |
| 20260902085004 | 73 | 256 | 0.0 | 0.0 | 0.00 | 0.38 | 0.00 | 92 | 1015.8 |
| 20260902084004 | 73 | 256 | 0.0 | 0.0 | 0.00 | 0.38 | 0.00 | 93 | 1015.9 |
| 20260902082004 | 73 | 256 | 0.0 | 0.0 | 0.00 | 0.38 | 0.00 | 92 | 1015.8 |
| 20260902081004 | 73 | 256 | 0.0 | 0.0 | 0.00 | 0.38 | 0.00 | 93 | 1015.6 |
| 20260902080004 | 73 | 256 | 0.0 | 0.0 | 0.00 | 0.38 | 0.00 | 92 | 1015.6 |
| 20260902075004 | 73 | 256 | 0.0 | 0.0 | 0.00 | 0.38 | 0.00 | 91 | 1015.4 |
| 20260902074005 | 73 | 256 | 0.0 | 0.0 | 0.00 | 0.38 | 0.00 | 91 | 1015.4 |
| 20260902071004 | 72 | 256 | 0.0 | 0.0 | 0.00 | 0.38 | 0.00 | 91 | 1015.1 |
| 20260902070005 | 72 | 256 | 0.0 | 0.0 | 0.00 | 0.38 | 0.00 | 91 | 1015.4 |
| 20260902065004 | 73 | 256 | 0.0 | 0.0 | 0.00 | 0.38 | 0.00 | 91 | 1015.4 |
| 20260902064004 | 73 | 256 | 0.0 | 0.0 | 0.00 | 0.38 | 0.00 | 91 | 1015.1 |
| 20260902063004 | 73 | 256 | 0.0 | 0.0 | 0.00 | 0.38 | 0.00 | 90 | 1015.3 |
| 20260902062003 | 73 | 256 | 0.0 | 0.0 | 0.00 | 0.38 | 0.00 | 90 | 1015.4 |
| 20260902061006 | 73 | 256 | 0.0 | 0.0 | 0.00 | 0.38 | 0.00 | 90 | 1015.4 |
| 20260902060006 | 74 | 256 | 0.0 | 0.0 | 0.00 | 0.38 | 0.00 | 91 | 1015.5 |
| 20260902055006 | 74 | 256 | 0.0 | 0.0 | 0.00 | 0.38 | 0.00 | 91 | 1015.6 |
| 20260902054005 | 74 | 256 | 0.0 | 0.0 | 0.00 | 0.38 | 0.00 | 91 | 1015.6 |
| 20260902053006 | 74 | 256 | 0.0 | 0.0 | 0.00 | 0.38 | 0.00 | 91 | 1015.8 |
| 20260902050008 | 75 | 256 | 0.0 | 0.0 | 0.00 | 0.38 | 0.00 | 91 | 1015.7 |
| 20260902045006 | 75 | 256 | 0.0 | 0.0 | 0.00 | 0.38 | 0.00 | 90 | 1015.6 |
| 20260902044006 | 75 | 256 | 0.0 | 0.0 | 0.00 | 0.38 | 0.00 | 91 | 1015.6 |
| 20260902043005 | 75 | 256 | 0.0 | 0.0 | 0.00 | 0.38 | 0.00 | 91 | 1015.6 |
| 20260902042006 | 75 | 256 | 0.0 | 0.0 | 0.00 | 0.38 | 0.00 | 91 | 1015.6 |
| 20260902041005 | 75 | 256 | 0.0 | 0.0 | 0.00 | 0.38 | 0.00 | 91 | 1015.4 |
| 20260902035006 | 75 | 256 | 0.0 | 0.0 | 0.00 | 0.38 | 0.38 | 91 | 1015.2 |
| 20260902034006 | 75 | 256 | 0.0 | 0.0 | 0.00 | 0.38 | 0.38 | 90 | 1015.1 |
| 20260902033005 | 75 | 256 | 0.0 | 0.0 | 0.00 | 0.38 | 0.38 | 91 | 1015.0 |
| 20260902032006 | 75 | 256 | 0.0 | 0.0 | 0.00 | 0.38 | 0.38 | 90 | 1014.5 |
| 20260902031005 | 75 | 256 | 0.0 | 0.0 | 0.00 | 0.38 | 0.38 | 90 | 1014.6 |
| 20260902030006 | 74 | 256 | 0.0 | 0.0 | 0.00 | 0.38 | 0.38 | 90 | 1014.8 |
| 20260902024006 | 75 | 256 | 0.0 | 0.0 | 0.00 | 0.38 | 0.38 | 90 | 1015.0 |
| 20260902023005 | 76 | 256 | 0.0 | 0.0 | 0.00 | 0.38 | 0.38 | 90 | 1015.4 |
| 20260902022005 | 77 | 256 | 0.0 | 0.0 | 0.00 | 0.38 | 0.38 | 90 | 1015.5 |
| 20260902021005 | 77 | 256 | 0.0 | 0.0 | 0.00 | 0.38 | 0.38 | 90 | 1015.7 |